createdAt,value
2023-03-01T00:02:03.352Z,16.77
2023-03-01T00:08:02.305Z,15.40
2023-03-01T00:12:54.323Z,16.70
2023-03-01T00:18:15.330Z,17.27
2023-03-01T00:23:16.071Z,16.03
2023-03-01T00:28:09.709Z,16.80
2023-03-01T00:33:15.070Z,18.70
2023-03-01T00:38:32.414Z,16.60
2023-03-01T00:43:39.287Z,17.93
2023-03-01T00:49:05.898Z,20.47
2023-03-01T00:54:19.491Z,20.23
2023-03-01T00:59:36.172Z,21.13
2023-03-01T01:04:21.425Z,19.27
2023-03-01T01:09:43.160Z,19.70
2023-03-01T01:15:05.150Z,18.80
2023-03-01T01:20:18.093Z,19.30
2023-03-01T01:30:34.062Z,20.13
2023-03-01T01:36:22.763Z,18.60
2023-03-01T01:41:30.433Z,18.40
2023-03-01T01:47:20.852Z,18.50
2023-03-01T01:52:20.320Z,18.07
2023-03-01T01:57:25.283Z,19.67
2023-03-01T02:02:18.783Z,19.70
2023-03-01T02:07:51.804Z,20.00
2023-03-01T02:12:42.303Z,19.93
2023-03-01T02:17:47.610Z,20.87
2023-03-01T02:23:00.567Z,20.67
2023-03-01T02:28:05.078Z,18.83
2023-03-01T02:33:09.536Z,16.97
2023-03-01T02:38:13.856Z,18.00
2023-03-01T02:43:04.926Z,17.30
2023-03-01T02:48:17.660Z,17.83
2023-03-01T02:53:28.268Z,17.53
2023-03-01T02:58:18.994Z,19.20
2023-03-01T03:03:36.458Z,18.50
2023-03-01T03:08:26.908Z,18.50
2023-03-01T03:13:26.370Z,18.00
2023-03-01T03:18:47.238Z,18.30
2023-03-01T03:23:47.130Z,18.63
2023-03-01T03:28:50.352Z,20.83
2023-03-01T03:33:55.846Z,19.43
2023-03-01T03:39:00.273Z,18.63
2023-03-01T03:43:53.457Z,20.30
2023-03-01T03:49:13.181Z,21.90
2023-03-01T03:54:33.533Z,20.80
2023-03-01T03:59:20.269Z,20.10
2023-03-01T04:04:21.913Z,20.50
2023-03-01T04:09:07.870Z,21.13
2023-03-01T04:13:59.695Z,21.90
2023-03-01T04:18:46.543Z,20.50
2023-03-01T04:23:33.916Z,21.50
2023-03-01T04:28:25.537Z,21.13
2023-03-01T04:33:10.909Z,21.67
2023-03-01T04:37:58.897Z,21.67
2023-03-01T04:42:46.162Z,20.07
2023-03-01T04:47:38.900Z,22.97
2023-03-01T04:52:22.359Z,24.40
2023-03-01T04:57:08.942Z,23.13
2023-03-01T05:01:57.950Z,22.37
2023-03-01T05:06:47.361Z,19.80
2023-03-01T05:11:36.798Z,20.17
2023-03-01T05:16:20.986Z,21.30
2023-03-01T05:21:10.403Z,19.33
2023-03-01T05:26:00.519Z,20.30
2023-03-01T05:30:44.485Z,21.43
2023-03-01T05:35:33.923Z,18.97
2023-03-01T05:40:25.026Z,17.17
2023-03-01T05:45:11.014Z,20.73
2023-03-01T05:49:57.457Z,19.23
2023-03-01T05:54:45.577Z,17.67
2023-03-01T05:59:32.683Z,17.80
2023-03-01T06:04:25.488Z,19.63
2023-03-01T06:09:10.851Z,19.97
2023-03-01T06:13:56.243Z,17.97
2023-03-01T06:18:48.552Z,18.63
2023-03-01T06:23:32.044Z,22.27
2023-03-01T06:28:20.192Z,24.00
2023-03-01T06:33:12.710Z,23.73
2023-03-01T06:37:58.310Z,24.23
2023-03-01T06:42:49.277Z,21.10
2023-03-01T06:47:34.118Z,21.20
2023-03-01T06:52:20.698Z,21.37
2023-03-01T06:57:30.981Z,19.47
2023-03-01T07:02:14.530Z,20.87
2023-03-01T07:06:59.935Z,23.30
2023-03-01T07:11:49.344Z,22.73
2023-03-01T07:16:43.304Z,22.27
2023-03-01T07:21:26.798Z,21.20
2023-03-01T07:26:12.242Z,20.13
2023-03-01T07:31:03.620Z,23.53
2023-03-01T07:36:07.100Z,23.57
2023-03-01T07:40:53.466Z,24.00
2023-03-01T07:45:40.119Z,22.37
2023-03-01T07:50:28.441Z,22.33
2023-03-01T07:55:16.794Z,22.73
2023-03-01T08:00:07.040Z,23.93
2023-03-01T08:05:13.665Z,22.67
2023-03-01T08:09:57.237Z,21.53
2023-03-01T08:14:51.537Z,21.63
2023-03-01T08:19:53.231Z,20.57
2023-03-01T08:24:36.639Z,20.93
2023-03-01T08:29:26.297Z,18.17
2023-03-01T08:34:18.072Z,18.87
2023-03-01T08:39:01.576Z,20.33
2023-03-01T08:43:51.377Z,20.90
2023-03-01T08:48:36.751Z,19.17
2023-03-01T08:53:25.513Z,19.10
2023-03-01T08:58:12.929Z,20.53
2023-03-01T09:03:05.583Z,20.30
2023-03-01T09:07:48.848Z,17.87
2023-03-01T09:12:39.716Z,19.80
2023-03-01T09:17:24.011Z,18.30
2023-03-01T09:27:53.394Z,18.07
2023-03-01T09:32:36.906Z,19.37
2023-03-01T09:37:24.588Z,18.87
2023-03-01T09:42:15.164Z,19.23
2023-03-01T09:47:04.190Z,17.90
2023-03-01T09:52:02.243Z,16.93
2023-03-01T09:56:59.316Z,17.87
2023-03-01T10:02:12.139Z,17.03
2023-03-01T10:07:22.763Z,16.13
2023-03-01T10:12:19.755Z,16.63
2023-03-01T10:17:22.761Z,16.70
2023-03-01T10:22:14.417Z,17.57
2023-03-01T10:27:03.791Z,16.60
2023-03-01T10:31:51.563Z,17.40
2023-03-01T10:36:42.250Z,15.47
2023-03-01T10:41:38.287Z,18.03
2023-03-01T10:46:45.228Z,16.80
2023-03-01T10:51:34.850Z,17.00
2023-03-01T11:01:40.351Z,16.57
2023-03-01T11:06:45.466Z,15.60
2023-03-01T11:11:35.594Z,16.23
2023-03-01T11:16:55.223Z,15.80
2023-03-01T11:21:45.420Z,15.80
2023-03-01T11:26:44.690Z,15.30
2023-03-01T11:31:34.606Z,13.87
2023-03-01T11:36:39.635Z,14.77
2023-03-01T11:41:29.918Z,13.93
2023-03-01T11:46:59.002Z,13.87
2023-03-01T11:51:54.522Z,13.40
2023-03-01T11:56:42.996Z,13.73
2023-03-01T12:02:11.339Z,12.93
2023-03-01T12:18:14.076Z,11.33
2023-03-01T12:23:36.542Z,11.80
2023-03-01T12:28:53.168Z,10.10
2023-03-01T12:33:56.845Z,9.07
2023-03-01T12:38:51.489Z,9.60
2023-03-01T12:43:52.308Z,9.37
2023-03-01T12:49:08.201Z,9.73
2023-03-01T12:53:59.484Z,10.70
2023-03-01T12:59:00.115Z,9.80
2023-03-01T13:09:39.891Z,9.83
2023-03-01T13:14:48.447Z,11.67
2023-03-01T13:25:42.834Z,13.97
2023-03-01T13:30:45.381Z,14.07
2023-03-01T13:35:53.126Z,12.57
2023-03-01T13:41:09.415Z,11.83
2023-03-01T13:46:00.620Z,12.27
2023-03-01T13:50:50.162Z,11.47
2023-03-01T13:55:40.302Z,11.60
2023-03-01T14:00:52.458Z,11.73
2023-03-01T14:05:46.680Z,11.83
2023-03-01T14:10:45.377Z,11.63
2023-03-01T14:15:56.679Z,11.57
2023-03-01T14:20:44.363Z,11.93
2023-03-01T14:25:31.180Z,11.33
2023-03-01T14:30:33.984Z,12.47
2023-03-01T14:35:34.679Z,11.03
2023-03-01T14:40:53.463Z,12.53
2023-03-01T14:45:58.010Z,11.43
2023-03-01T14:50:59.141Z,12.80
2023-03-01T14:55:54.665Z,12.37
2023-03-01T15:00:39.324Z,12.43
2023-03-01T15:05:31.438Z,12.67
2023-03-01T15:10:26.946Z,11.83
2023-03-01T15:15:38.781Z,12.17
2023-03-01T15:20:26.926Z,11.87
2023-03-01T15:25:26.375Z,12.23
2023-03-01T15:30:27.089Z,13.00
2023-03-01T15:35:37.726Z,11.87
2023-03-01T15:40:41.091Z,11.07
2023-03-01T15:45:30.474Z,12.57
2023-03-01T15:50:20.015Z,11.70
2023-03-01T15:55:06.674Z,12.17
2023-03-01T15:59:51.611Z,11.03
2023-03-01T16:04:38.445Z,12.97
2023-03-01T16:09:27.097Z,12.13
2023-03-01T16:14:17.420Z,10.80
2023-03-01T16:19:03.627Z,10.93
2023-03-01T16:23:50.468Z,10.83
2023-03-01T16:28:43.051Z,11.17
2023-03-01T16:33:32.206Z,11.80
2023-03-01T16:38:29.674Z,12.80
2023-03-01T16:43:22.382Z,11.20
2023-03-01T16:48:06.523Z,13.73
2023-03-01T16:52:53.505Z,13.83
2023-03-01T16:57:47.709Z,12.90
2023-03-01T17:02:31.242Z,14.03
2023-03-01T17:07:20.687Z,13.67
2023-03-01T17:12:07.432Z,13.77
2023-03-01T17:16:55.552Z,15.40
2023-03-01T17:21:45.183Z,13.33
2023-03-01T17:26:30.662Z,13.07
2023-03-01T17:31:23.950Z,15.13
2023-03-01T17:36:09.326Z,16.13
2023-03-01T17:40:53.503Z,17.53
2023-03-01T17:45:44.527Z,18.00
2023-03-01T17:50:29.421Z,16.37
2023-03-01T17:55:23.984Z,16.57
2023-03-01T18:00:09.364Z,17.00
2023-03-01T18:05:11.905Z,17.90
2023-03-01T18:09:59.192Z,18.03
2023-03-01T18:14:48.455Z,17.53
2023-03-01T18:19:35.122Z,18.10
2023-03-01T18:24:24.130Z,16.60
2023-03-01T18:29:11.441Z,16.83
2023-03-01T18:33:58.848Z,16.77
2023-03-01T18:38:45.182Z,19.23
2023-03-01T18:43:34.710Z,21.37
2023-03-01T18:48:23.234Z,20.00
2023-03-01T18:53:11.973Z,16.60
2023-03-01T18:57:58.673Z,14.20
2023-03-01T19:02:47.590Z,14.17
2023-03-01T19:07:34.265Z,12.43
2023-03-01T19:12:37.438Z,12.43
2023-03-01T19:17:32.081Z,11.70
2023-03-01T19:22:15.563Z,10.90
2023-03-01T19:27:02.351Z,11.13
2023-03-01T19:31:56.418Z,14.00
2023-03-01T19:36:41.865Z,13.30
2023-03-01T19:41:25.517Z,10.50
2023-03-01T19:46:15.076Z,9.93
2023-03-01T19:51:03.189Z,10.23
2023-03-01T19:55:49.993Z,12.30
2023-03-01T20:00:59.108Z,12.70
2023-03-01T20:05:43.886Z,11.37
2023-03-01T20:10:33.247Z,11.07
2023-03-01T20:15:17.478Z,10.73
2023-03-01T20:20:11.540Z,11.43
2023-03-01T20:24:55.318Z,10.70
2023-03-01T20:29:46.073Z,10.33
2023-03-01T20:34:29.975Z,12.20
2023-03-01T20:39:23.590Z,11.97
2023-03-01T20:44:07.838Z,12.03
2023-03-01T20:48:55.295Z,13.40
2023-03-01T20:53:42.904Z,14.30
2023-03-01T20:58:32.740Z,13.27
2023-03-01T21:03:19.889Z,12.60
2023-03-01T21:08:07.375Z,12.20
2023-03-01T21:12:57.686Z,13.33
2023-03-01T21:17:41.255Z,11.83
2023-03-01T21:22:49.269Z,12.20
2023-03-01T21:27:39.352Z,12.13
2023-03-01T21:32:23.242Z,16.73
2023-03-01T21:37:12.017Z,12.13
2023-03-01T21:42:01.780Z,12.53
2023-03-01T21:46:49.827Z,12.63
2023-03-01T21:51:34.123Z,12.97
2023-03-01T21:56:36.616Z,24.33
2023-03-01T22:01:28.418Z,29.93
2023-03-01T22:06:19.648Z,33.33
2023-03-01T22:29:15.533Z,15.67
2023-03-01T22:34:00.510Z,15.10
2023-03-01T22:38:49.749Z,15.63
2023-03-01T22:43:36.532Z,15.90
2023-03-01T22:48:25.104Z,16.77
2023-03-01T22:53:10.095Z,17.10
2023-03-01T22:57:59.666Z,15.87
2023-03-01T23:02:47.049Z,17.50
2023-03-01T23:07:34.707Z,17.67
2023-03-01T23:12:21.848Z,17.77
2023-03-01T23:22:46.695Z,16.73
2023-03-01T23:27:37.544Z,16.97
2023-03-01T23:32:21.498Z,16.83
2023-03-01T23:37:12.834Z,16.37
2023-03-01T23:42:00.114Z,16.57
2023-03-01T23:46:47.048Z,20.77
2023-03-01T23:51:34.630Z,19.00
2023-03-01T23:56:39.407Z,21.10
